Time;durP1;ratioP1;P1;durP2;ratioP2;P2;SDS_P1;SDS_P2;PMS_P1;PMS_P2;Temp;Humidity;BMP_temperature;BMP_pressure;BME280_temperature;BME280_humidity;BME280_pressure;Samples;Min_cycle;Max_cycle;Signal;HPM_P1;HPM_P2
2022/05/15 00:01:04;;;;;;;;;;;;;;;14.66;82.53;100207.34;6123023;23;19928;-88
2022/05/15 00:03:37;;;;;;;;;;;;;;;14.63;83.46;100211.84;6077111;23;19917;-88
2022/05/15 00:06:03;;;;;;;;;;;;;;;14.74;82.17;100214.97;6075072;23;20303;-88
2022/05/15 00:08:31;;;;;;;;;;;;;;;14.80;82.03;100210.31;6098216;23;19920;-88
2022/05/15 00:10:56;;;;;;;;;;;;;;;14.80;82.07;100210.31;6073276;23;20340;-88
2022/05/15 00:13:23;;;;;;;;;;;;;;;14.74;82.13;100219.78;6074176;23;19917;-88
2022/05/15 00:15:51;;;;;;;;;;;;;;;14.76;82.71;100209.69;6098366;23;19996;-88
2022/05/15 00:18:17;;;;;;;;;;;;;;;14.77;83.05;100213.25;6073791;23;19968;-88
2022/05/15 00:20:43;;;;;;;;;;;;;;;14.68;84.59;100214.00;6098355;23;19924;-88
2022/05/15 00:23:09;;;;;;;;;;;;;;;14.57;85.24;100207.31;6121007;23;19917;-88
2022/05/15 00:25:34;;;;;;;;;;;;;;;14.56;85.34;100208.56;6097552;23;19917;-88
2022/05/15 00:28:00;;;;;;;;;;;;;;;14.57;85.73;100212.91;6073719;23;20016;-88
2022/05/15 00:30:26;;;;;;;;;;;;;;;14.37;86.30;100216.06;6073593;23;19920;-88
2022/05/15 00:32:51;;;;;;;;;;;;;;;14.32;86.33;100213.84;6074073;23;19929;-90
2022/05/15 00:35:17;;;;;;;;;;;;;;;14.28;86.14;100208.41;6099114;23;20500;-90
2022/05/15 00:37:42;;;;;;;;;;;;;;;14.18;86.47;100204.03;6073869;23;19919;-90
2022/05/15 00:40:08;;;;;;;;;;;;;;;14.19;86.57;100210.41;6073585;23;19917;-90
2022/05/15 00:42:33;;;;;;;;;;;;;;;14.24;86.23;100218.94;6072701;23;19917;-89
2022/05/15 00:44:59;;;;;;;;;;;;;;;14.24;85.70;100207.78;6098475;23;19971;-91
2022/05/15 00:47:24;;;;;;;;;;;;;;;14.14;85.86;100208.97;6097784;23;19924;-90
2022/05/15 00:49:50;;;;;;;;;;;;;;;14.03;85.90;100214.94;6073845;23;19917;-90
2022/05/15 00:52:16;;;;;;;;;;;;;;;14.03;86.20;100214.94;6073723;23;19913;-90
2022/05/15 00:54:44;;;;;;;;;;;;;;;14.07;86.35;100202.91;6097183;23;19956;-89
2022/05/15 00:57:14;;;;;;;;;;;;;;;14.08;85.19;100201.63;6122063;23;19921;-91
2022/05/15 00:59:42;;;;;;;;;;;;;;;14.07;86.72;100200.09;6096092;23;19963;-90
2022/05/15 10:32:05;;;;;;;7.27;3.03;;;;;;;27.12;31.55;100269.78;6224017;22;1424449;-81
2022/05/15 10:34:31;;;;;;;4.75;2.95;;;;;;;27.31;32.42;100270.44;6222283;23;20019;-80
2022/05/15 10:37:23;;;;;;;4.70;2.28;;;;;;;27.15;28.66;100271.53;6250007;22;20509;-81
2022/05/15 10:39:49;;;;;;;4.60;2.80;;;;;;;27.12;28.27;100270.56;6247714;23;20013;-81
2022/05/15 10:42:39;;;;;;;3.45;2.47;;;;;;;27.17;29.56;100266.06;6249285;22;20022;-81
2022/05/15 10:45:32;;;;;;;5.97;2.97;;;;;;;27.70;28.87;100259.00;6246998;23;20022;-79
2022/05/15 10:48:09;;;;;;;5.05;2.80;;;;;;;27.33;29.14;100250.72;6249292;22;20016;-81
2022/05/15 10:50:54;;;;;;;7.07;3.80;;;;;;;27.51;30.25;100238.44;6248559;22;20016;-81
2022/05/15 10:59:49;;;;;;;5.93;2.90;;;;;;;26.94;32.54;100247.84;6249396;22;20018;-79
2022/05/15 11:02:23;;;;;;;5.35;3.00;;;;;;;27.10;32.69;100243.91;6234418;23;20016;-81
2022/05/15 11:05:10;;;;;;;5.72;3.47;;;;;;;27.43;34.66;100243.25;6219238;23;20016;-82
2022/05/15 11:07:48;;;;;;;6.60;3.63;;;;;;;27.64;33.32;100235.59;6217718;23;20106;-82
2022/05/15 11:10:22;;;;;;;4.10;3.50;;;;;;;28.11;34.09;100226.25;6218879;23;20024;-82
2022/05/15 11:12:54;;;;;;;5.72;3.58;;;;;;;28.24;34.89;100229.81;6218085;23;20018;-81
2022/05/15 11:16:14;;;;;;;5.50;3.72;;;;;;;28.13;34.03;100220.75;6211304;23;20008;-82
2022/05/15 11:18:52;;;;;;;5.47;3.95;;;;;;;28.47;34.13;100227.16;6120308;23;20026;-84
2022/05/15 11:21:24;;;;;;;7.32;3.90;;;;;;;28.50;32.92;100220.34;6199598;23;20513;-84
2022/05/15 11:23:59;;;;;;;4.60;3.67;;;;;;;28.38;34.10;100213.41;6211204;23;20465;-84
2022/05/15 11:26:33;;;;;;;5.05;3.72;;;;;;;28.60;34.60;100217.75;6211246;23;20012;-83
2022/05/15 11:29:03;;;;;;;6.70;3.70;;;;;;;28.86;32.99;100214.00;6209368;23;20016;-85
2022/05/15 11:31:35;;;;;;;9.70;3.78;;;;;;;28.91;33.90;100210.22;6232372;22;20480;-85
2022/05/15 11:34:03;;;;;;;6.97;4.10;;;;;;;28.54;33.75;100217.91;6241760;22;20389;-83
2022/05/15 11:36:35;;;;;;;6.35;3.78;;;;;;;28.24;33.71;100212.69;6270110;22;20012;-82
2022/05/15 11:39:13;;;;;;;5.13;3.90;;;;;;;28.59;33.60;100214.13;6242740;22;20396;-81
2022/05/15 11:41:38;;;;;;;5.32;3.78;;;;;;;28.65;33.98;100209.06;6271765;22;20020;-81
2022/05/15 11:44:06;;;;;;;5.80;4.10;;;;;;;28.46;34.38;100205.69;6270595;22;20468;-81
2022/05/15 11:46:54;;;;;;;7.35;4.30;;;;;;;28.59;34.14;100205.56;6244991;22;20004;-82
2022/05/15 11:49:29;;;;;;;7.25;4.40;;;;;;;28.81;34.05;100200.63;6199831;22;20476;-81
2022/05/15 11:52:03;;;;;;;5.50;3.70;;;;;;;28.82;33.57;100197.22;6273753;22;20012;-85
2022/05/15 11:54:31;;;;;;;5.60;4.13;;;;;;;28.34;33.73;100204.44;6273030;22;20012;-82
2022/05/15 11:56:57;;;;;;;4.45;3.90;;;;;;;28.02;34.67;100198.97;6246336;22;20016;-81
2022/05/15 11:59:34;;;;;;;9.48;4.30;;;;;;;27.14;37.39;100193.88;6272164;22;20004;-82
2022/05/15 12:02:12;;;;;;;5.82;3.90;;;;;;;27.09;37.02;100186.25;6245197;22;20443;-81
2022/05/15 12:04:38;;;;;;;6.68;4.45;;;;;;;27.15;37.35;100192.56;6245273;22;20015;-81
2022/05/15 12:07:03;;;;;;;5.97;3.90;;;;;;;26.66;37.55;100195.03;6272288;22;20080;-90
2022/05/15 12:09:32;;;;;;;5.00;4.10;;;;;;;26.69;37.82;100185.41;6272465;22;20019;-82
2022/05/15 12:12:31;;;;;;;7.13;4.65;;;;;;;26.82;37.39;100173.28;6272402;22;20015;-81
2022/05/15 12:15:10;;;;;;;6.15;4.38;;;;;;;26.26;38.59;100184.91;6272784;22;20081;-80
2022/05/15 12:17:44;;;;;;;7.18;4.45;;;;;;;26.02;39.55;100182.16;6272541;22;20094;-83
2022/05/15 12:20:15;;;;;;;7.68;4.60;;;;;;;25.96;39.71;100174.50;6218667;22;20023;-83
2022/05/15 12:22:49;;;;;;;6.72;4.63;;;;;;;26.14;38.91;100175.00;6273426;22;20463;-82
2022/05/15 12:25:15;;;;;;;5.93;4.20;;;;;;;26.38;38.33;100164.25;6243829;22;20015;-82
2022/05/15 12:30:48;;;;;;;6.50;4.47;;;;;;;27.43;38.36;100152.09;6271816;22;20381;-84
2022/05/15 12:33:14;;;;;;;6.43;4.45;;;;;;;28.00;36.32;100158.06;6245242;22;20026;-81
2022/05/15 12:35:46;;;;;;;6.93;4.80;;;;;;;28.17;36.02;100149.88;6245887;22;20059;-82
2022/05/15 12:38:11;;;;;;;6.57;4.50;;;;;;;28.55;34.97;100161.63;6244856;22;20012;-83
2022/05/15 12:40:45;;;;;;;7.45;4.57;;;;;;;28.92;34.66;100149.69;6272021;22;20433;-85
2022/05/15 12:43:20;;;;;;;5.75;4.53;;;;;;;29.07;34.42;100143.31;6244191;22;20016;-81
2022/05/15 12:45:46;;;;;;;7.22;4.18;;;;;;;28.15;34.32;100135.41;6244200;22;20388;-80
2022/05/15 12:48:12;;;;;;;6.95;4.43;;;;;;;27.34;37.31;100138.31;6271453;22;20007;-80
2022/05/15 12:50:56;;;;;;;8.75;5.25;;;;;;;28.01;36.23;100136.78;6272662;22;20003;-79
2022/05/15 12:53:27;;;;;;;7.55;4.22;;;;;;;27.78;35.55;100136.56;6272394;22;20448;-80
2022/05/15 12:55:53;;;;;;;7.18;4.50;;;;;;;28.26;35.08;100135.91;6272884;22;20011;-81
2022/05/15 12:58:31;;;;;;;4.85;4.15;;;;;;;28.10;35.64;100128.53;6270916;22;20012;-80
2022/05/15 13:00:57;;;;;;;5.82;4.10;;;;;;;28.66;35.16;100127.81;6272312;22;20012;-80
2022/05/15 13:03:23;;;;;;;5.00;3.97;;;;;;;28.83;34.57;100123.75;6270847;22;20077;-80
2022/05/15 13:05:48;;;;;;;4.85;4.05;;;;;;;28.87;34.80;100124.16;6272305;22;20004;-80
2022/05/15 13:08:14;;;;;;;5.40;4.13;;;;;;;28.94;33.67;100118.50;6271232;22;20022;-80
2022/05/15 13:10:44;;;;;;;6.65;4.32;;;;;;;28.84;34.14;100105.28;6245164;22;20012;-81
2022/05/15 13:13:39;;;;;;;8.25;4.55;;;;;;;29.12;34.67;100116.66;6243765;22;20027;-80
2022/05/15 13:16:06;;;;;;;6.13;4.40;;;;;;;28.57;34.48;100114.06;6232002;22;20020;-80
2022/05/15 13:18:34;;;;;;;6.68;4.25;;;;;;;28.03;35.09;100106.38;6210979;22;20065;-81
2022/05/15 13:21:02;;;;;;;5.97;4.18;;;;;;;28.01;35.48;100120.44;6237067;22;20011;-81
2022/05/15 13:23:36;;;;;;;6.20;4.13;;;;;;;27.84;35.75;100111.53;6269301;22;20015;-81
2022/05/15 13:26:03;;;;;;;6.10;4.63;;;;;;;28.03;35.47;100108.47;6244158;22;20441;-81
2022/05/15 13:28:31;;;;;;;5.65;4.30;;;;;;;28.02;35.07;100104.09;6245127;22;20008;-82
2022/05/15 13:30:57;;;;;;;8.20;4.38;;;;;;;28.10;34.94;100104.97;6244577;22;20008;-80
2022/05/15 13:33:26;;;;;;;5.10;4.18;;;;;;;28.41;35.22;100101.00;6244016;22;20024;-80
2022/05/15 13:35:54;;;;;;;7.32;4.00;;;;;;;28.38;35.10;100099.28;6245662;22;20012;-80
2022/05/15 13:38:26;;;;;;;6.50;4.40;;;;;;;28.45;34.25;100101.41;6244007;22;20323;-80
2022/05/15 13:43:50;;;;;;;7.47;4.32;;;;;;;27.92;35.30;100100.19;6248238;22;20072;-80
2022/05/15 13:46:30;;;;;;;6.38;4.13;;;;;;;28.32;35.13;100087.25;6242030;22;20974;-80
2022/05/15 13:49:02;;;;;;;7.05;4.60;;;;;;;28.57;35.44;100091.22;6220337;22;20042;-80
2022/05/15 13:51:53;;;;;;;6.28;4.43;;;;;;;28.36;34.37;100079.09;6272473;22;20372;-81
2022/05/15 13:54:22;;;;;;;7.18;4.70;;;;;;;28.52;34.36;100077.88;6237850;22;20015;-80
2022/05/15 13:57:00;;;;;;;5.15;4.07;;;;;;;28.24;34.51;100086.44;6245687;22;20053;-81
2022/05/15 13:59:41;;;;;;;7.93;4.45;;;;;;;27.82;34.93;100083.56;6218725;22;20023;-83
2022/05/15 14:02:19;;;;;;;5.70;4.10;;;;;;;28.03;34.73;100083.56;6273246;22;20015;-80
2022/05/15 14:04:59;;;;;;;6.35;4.13;;;;;;;28.04;34.23;100073.69;6273668;22;20016;-82
2022/05/15 14:07:33;;;;;;;6.25;4.03;;;;;;;28.14;34.12;100071.94;6273588;22;20468;-80
2022/05/15 14:10:02;;;;;;;5.50;4.15;;;;;;;28.52;34.46;100066.47;6273183;22;20067;-80
2022/05/15 14:12:42;;;;;;;6.80;4.68;;;;;;;28.24;34.92;100060.75;6272675;22;20015;-80
2022/05/15 14:15:08;;;;;;;8.90;4.40;;;;;;;27.93;35.55;100061.81;6272249;22;20023;-79
2022/05/15 14:17:49;;;;;;;5.50;4.40;;;;;;;27.82;34.83;100052.22;6243360;22;20011;-79
2022/05/15 14:20:24;;;;;;;7.18;4.25;;;;;;;28.32;34.72;100050.16;6244626;22;20513;-79
2022/05/15 14:22:49;;;;;;;7.95;4.28;;;;;;;28.65;34.76;100048.47;6244726;22;20099;-79
2022/05/15 14:25:15;;;;;;;4.88;4.10;;;;;;;28.02;34.81;100049.94;6271506;22;20445;-79
2022/05/15 14:27:41;;;;;;;5.28;4.32;;;;;;;27.74;35.55;100033.56;6270983;22;20011;-82
2022/05/15 14:30:08;;;;;;;5.22;4.03;;;;;;;27.54;35.65;100046.44;6271232;22;20031;-82
2022/05/15 14:32:35;;;;;;;6.03;4.10;;;;;;;27.88;36.10;100048.47;6243972;22;20008;-80
2022/05/15 14:35:07;;;;;;;5.82;4.53;;;;;;;27.73;36.12;100037.72;6272397;22;20012;-82
2022/05/15 14:37:32;;;;;;;6.43;4.17;;;;;;;28.04;35.86;100035.88;6272503;22;20012;-82
2022/05/15 14:39:58;;;;;;;7.75;4.18;;;;;;;27.92;34.99;100046.03;6271819;22;20016;-83
2022/05/15 14:42:24;;;;;;;8.18;4.63;;;;;;;27.81;35.49;100045.00;6272063;22;20082;-82
2022/05/15 14:44:50;;;;;;;6.07;4.03;;;;;;;27.28;36.38;100038.00;6272439;22;20049;-82
2022/05/15 14:47:19;;;;;;;6.95;4.60;;;;;;;27.67;36.27;100045.63;6272198;22;20004;-81
2022/05/15 14:49:51;;;;;;;7.43;4.78;;;;;;;27.73;35.98;100044.19;6247271;22;20043;-82
2022/05/15 14:52:19;;;;;;;5.97;4.38;;;;;;;27.24;36.49;100048.97;6275085;22;20008;-82
2022/05/15 14:54:45;;;;;;;7.65;4.40;;;;;;;27.51;35.98;100039.03;6274149;22;20035;-83
2022/05/15 14:57:10;;;;;;;8.30;4.28;;;;;;;27.55;35.98;100045.13;6273961;22;20018;-83
2022/05/15 14:59:43;;;;;;;6.25;4.53;;;;;;;27.65;36.37;100031.94;6221671;22;20012;-83
2022/05/15 15:02:09;;;;;;;5.55;4.50;;;;;;;27.66;36.48;100030.59;6246623;22;20102;-83
2022/05/15 15:04:35;;;;;;;8.43;4.65;;;;;;;27.56;35.40;100040.97;6221126;22;20370;-83
2022/05/15 15:07:02;;;;;;;8.40;4.30;;;;;;;27.40;36.01;100035.66;6247737;22;20007;-84
2022/05/15 15:09:28;;;;;;;6.68;4.65;;;;;;;27.20;36.87;100031.47;6274034;22;20143;-83
2022/05/15 15:11:54;;;;;;;6.13;4.78;;;;;;;27.43;36.02;100017.44;6274348;22;20018;-83
2022/05/15 15:14:21;;;;;;;7.40;4.82;;;;;;;27.56;35.81;100023.88;6246271;22;20476;-84
2022/05/15 15:16:49;;;;;;;6.22;4.50;;;;;;;27.52;35.48;100026.31;6247346;22;20041;-83
2022/05/15 15:19:18;;;;;;;6.13;4.30;;;;;;;27.56;35.84;100023.88;6246732;22;20000;-85
2022/05/15 15:21:45;;;;;;;7.32;4.45;;;;;;;26.92;36.28;100019.94;6274551;22;20060;-84
2022/05/15 15:24:11;;;;;;;5.38;4.15;;;;;;;26.76;36.83;100025.44;6274557;22;20007;-85
2022/05/15 15:26:37;;;;;;;6.15;4.38;;;;;;;26.82;36.86;100014.69;6247238;22;20012;-84
2022/05/15 15:29:04;;;;;;;6.00;4.53;;;;;;;26.83;37.38;100021.13;6274023;22;20015;-84
2022/05/15 15:31:32;;;;;;;7.78;4.70;;;;;;;26.67;37.66;100020.19;6273680;22;20016;-85
2022/05/15 15:34:04;;;;;;;4.90;4.40;;;;;;;26.68;37.16;100021.72;6274313;22;20091;-83
2022/05/15 15:36:30;;;;;;;8.35;5.43;;;;;;;27.02;37.52;100018.16;6274740;22;20065;-83
2022/05/15 15:38:56;;;;;;;6.97;4.57;;;;;;;26.86;37.00;100006.59;6273589;22;20022;-83
2022/05/15 15:41:22;;;;;;;5.40;4.68;;;;;;;26.56;38.00;100014.72;6247049;22;20441;-83
2022/05/15 15:43:51;;;;;;;5.97;4.40;;;;;;;26.84;37.37;100014.94;6275231;22;20018;-82
2022/05/15 15:46:19;;;;;;;6.00;4.78;;;;;;;27.12;37.70;100011.44;6273713;22;20425;-83
2022/05/15 15:48:44;;;;;;;6.10;4.47;;;;;;;27.29;36.63;99994.75;6248203;22;20015;-85
2022/05/15 15:51:26;;;;;;;7.68;4.55;;;;;;;27.07;36.79;99995.25;6247533;22;20487;-85
2022/05/15 15:53:55;;;;;;;8.18;4.70;;;;;;;26.83;37.77;100001.97;6273812;22;20011;-83
2022/05/15 15:56:23;;;;;;;6.10;4.63;;;;;;;27.04;37.97;100001.28;6248876;22;20000;-84
2022/05/15 15:58:49;;;;;;;7.32;4.97;;;;;;;27.25;37.12;100005.72;6275049;22;20328;-85
2022/05/15 16:01:18;;;;;;;5.53;4.30;;;;;;;27.30;36.91;100006.88;6246714;22;20094;-85
2022/05/15 16:03:44;;;;;;;8.48;5.15;;;;;;;27.23;36.69;100007.56;6275017;22;20348;-85
2022/05/15 16:06:10;;;;;;;6.90;5.05;;;;;;;27.09;36.67;99991.88;6245632;22;20011;-86
2022/05/15 16:08:35;;;;;;;6.57;4.93;;;;;;;27.16;36.44;100003.34;6272863;22;20372;-89
2022/05/15 16:11:01;;;;;;;6.07;4.97;;;;;;;27.21;37.41;100004.53;6274704;22;20046;-86
2022/05/15 16:13:26;;;;;;;6.53;4.90;;;;;;;27.07;36.55;100005.88;6248207;22;20015;-87
2022/05/15 16:15:53;;;;;;;6.82;4.93;;;;;;;26.98;37.42;100009.19;6275525;22;20319;-88
2022/05/15 16:18:19;;;;;;;9.05;5.25;;;;;;;27.00;37.63;99998.03;6274077;22;20315;-84
2022/05/15 16:20:52;;;;;;;6.22;4.65;;;;;;;26.79;37.82;100000.78;6273868;22;20012;-84
2022/05/15 16:23:20;;;;;;;5.55;4.97;;;;;;;26.70;37.93;99996.31;6273975;22;20012;-84
2022/05/15 16:25:46;;;;;;;8.63;5.20;;;;;;;26.83;37.91;100004.06;6246619;22;20012;-84
2022/05/15 16:28:12;;;;;;;6.20;5.00;;;;;;;26.74;37.59;99988.22;6245849;22;20456;-83
2022/05/15 16:30:38;;;;;;;5.50;4.47;;;;;;;26.69;37.70;100006.16;6272885;22;20008;-84
2022/05/15 16:33:04;;;;;;;5.85;4.60;;;;;;;26.59;38.53;100005.09;6271449;22;20023;-83
2022/05/15 16:35:30;;;;;;;8.25;4.60;;;;;;;26.19;38.78;100004.34;6220288;22;20429;-84
2022/05/15 16:37:56;;;;;;;6.18;4.72;;;;;;;25.85;38.65;100014.78;6272256;22;20023;-82
2022/05/15 16:40:23;;;;;;;9.15;5.07;;;;;;;25.84;39.81;100014.00;6272477;22;20003;-81
2022/05/15 16:42:49;;;;;;;6.25;4.47;;;;;;;25.72;39.61;100006.97;6272793;22;20137;-82
2022/05/15 16:45:18;;;;;;;4.97;4.40;;;;;;;25.67;39.64;100009.94;6271991;22;20012;-81
2022/05/15 16:47:44;;;;;;;6.97;4.93;;;;;;;25.54;39.88;100007.81;6273058;22;20012;-82
2022/05/15 16:50:16;;;;;;;7.55;5.13;;;;;;;25.59;40.13;100006.97;6244446;22;20053;-82
2022/05/15 16:52:45;;;;;;;5.38;4.88;;;;;;;25.48;39.92;99998.59;6245695;22;20067;-81
2022/05/15 16:55:11;;;;;;;7.32;4.60;;;;;;;25.51;40.19;100008.88;6269781;22;20015;-82
2022/05/15 16:57:36;;;;;;;6.88;4.90;;;;;;;25.55;40.06;99998.00;6242224;22;20011;-78
2022/05/15 17:00:04;;;;;;;7.63;4.65;;;;;;;25.51;40.18;99992.63;6269212;22;20019;-84
2022/05/15 17:02:29;;;;;;;6.00;4.75;;;;;;;25.57;40.18;99995.38;6243445;22;20067;-85
2022/05/15 17:04:55;;;;;;;6.75;4.97;;;;;;;25.52;39.93;99996.19;6240147;22;20011;-84
2022/05/15 17:07:20;;;;;;;6.82;4.57;;;;;;;25.51;40.11;100003.22;6240738;22;20025;-84
2022/05/15 17:09:46;;;;;;;5.57;4.68;;;;;;;25.39;40.03;99999.78;6269968;22;20014;-84
2022/05/15 17:12:11;;;;;;;7.65;4.78;;;;;;;25.27;40.46;100006.19;6270559;22;20408;-83
2022/05/15 17:14:37;;;;;;;5.95;4.70;;;;;;;25.00;42.40;100000.38;6270886;22;20374;-84
2022/05/15 17:17:03;;;;;;;6.10;4.60;;;;;;;24.94;43.06;100011.03;6270603;22;20015;-84
2022/05/15 17:19:29;;;;;;;6.47;5.10;;;;;;;24.81;43.58;99999.59;6272404;22;20034;-84
2022/05/15 17:21:55;;;;;;;5.93;5.03;;;;;;;24.81;43.78;100005.25;6269730;22;20441;-83
2022/05/15 17:24:30;;;;;;;7.57;5.10;;;;;;;24.72;44.72;100014.13;6271105;22;20000;-83
2022/05/15 17:26:59;;;;;;;7.85;5.47;;;;;;;24.68;44.00;100012.91;6271436;22;20046;-82
2022/05/15 17:34:55;;;;;;;7.22;4.70;;;;;;;24.55;44.75;100019.25;6271972;22;20333;-84
2022/05/15 17:37:21;;;;;;;7.15;5.43;;;;;;;24.44;44.49;100008.06;6269699;22;20011;-83
2022/05/15 17:39:46;;;;;;;8.02;5.18;;;;;;;24.34;45.15;100016.19;6271485;22;20377;-83
2022/05/15 17:42:12;;;;;;;6.85;5.25;;;;;;;24.23;45.60;100018.34;6269837;22;20023;-83
2022/05/15 17:44:37;;;;;;;7.07;4.70;;;;;;;24.14;45.96;100025.91;6271548;22;20388;-84
2022/05/15 17:47:03;;;;;;;6.20;5.10;;;;;;;23.96;46.65;100006.75;6269343;22;20008;-83
2022/05/15 17:49:28;;;;;;;6.75;4.88;;;;;;;23.96;46.92;100023.75;6272255;22;20012;-83
2022/05/15 17:51:54;;;;;;;6.07;4.88;;;;;;;23.91;47.34;100018.91;6270995;22;20007;-83
2022/05/15 17:54:20;;;;;;;7.57;4.95;;;;;;;23.71;47.57;99993.88;6271455;22;20039;-83
2022/05/15 17:56:48;;;;;;;7.20;4.97;;;;;;;23.94;47.81;100032.00;6270690;22;20019;-83
2022/05/15 17:59:14;;;;;;;7.78;5.07;;;;;;;23.82;47.40;100024.91;6269892;22;20449;-83
2022/05/15 18:01:39;;;;;;;7.32;5.00;;;;;;;23.71;47.65;100025.03;6241983;22;20015;-83
2022/05/15 18:04:05;;;;;;;7.57;5.03;;;;;;;23.69;48.23;100019.13;6271956;22;20011;-82
2022/05/15 18:06:31;;;;;;;7.28;5.30;;;;;;;23.78;48.26;100027.25;6271432;22;20069;-83
2022/05/15 18:08:56;;;;;;;6.88;5.03;;;;;;;23.68;47.89;100014.75;6273040;22;20034;-83
2022/05/15 18:11:23;;;;;;;7.95;5.25;;;;;;;23.53;48.55;100011.53;6271518;22;20011;-83
2022/05/15 18:13:51;;;;;;;6.28;4.93;;;;;;;23.36;49.47;100019.38;6272278;22;20575;-83
2022/05/15 18:16:18;;;;;;;9.25;7.10;;;;;;;23.21;49.44;100016.91;6243724;22;20019;-84
2022/05/15 18:18:43;;;;;;;10.75;8.65;;;;;;;23.10;49.96;100014.91;6273633;22;20008;-83
2022/05/15 18:21:09;;;;;;;11.93;9.02;;;;;;;23.03;50.05;100009.81;6272439;22;20019;-83
2022/05/15 18:23:35;;;;;;;9.20;7.57;;;;;;;22.99;51.39;100028.34;6244093;22;20448;-83
2022/05/15 18:26:01;;;;;;;9.27;6.70;;;;;;;22.88;51.32;100028.41;6274881;22;20019;-83
2022/05/15 18:28:27;;;;;;;7.13;5.60;;;;;;;22.84;51.79;100027.94;6275169;22;20075;-83
2022/05/15 18:30:55;;;;;;;8.00;5.63;;;;;;;22.75;51.91;100031.81;6274942;22;20426;-83
2022/05/15 18:33:21;;;;;;;9.52;5.55;;;;;;;22.65;52.16;100022.06;6274123;22;20131;-83
2022/05/15 18:38:30;;;;;;;7.60;6.00;;;;;;;22.58;53.22;100036.75;6275612;22;20059;-83
2022/05/15 18:40:56;;;;;;;10.60;5.50;;;;;;;22.46;53.33;100038.06;6246458;22;20087;-83
2022/05/15 18:43:26;;;;;;;10.55;6.38;;;;;;;22.49;55.53;100046.28;6274079;22;20451;-83
2022/05/15 18:45:52;;;;;;;9.73;6.82;;;;;;;22.48;56.51;100046.81;6248622;22;20084;-83
2022/05/15 18:48:18;;;;;;;8.35;6.35;;;;;;;22.24;57.64;100042.50;6275212;22;20505;-83
2022/05/15 18:56:13;;;;;;;12.07;6.30;;;;;;;21.84;57.27;100051.53;6275237;22;20372;-83
2022/05/15 18:58:39;;;;;;;9.18;6.82;;;;;;;21.83;57.25;100055.66;6274631;22;20428;-83
2022/05/15 19:01:04;;;;;;;11.05;7.10;;;;;;;21.80;57.46;100056.66;6274979;22;20007;-82
2022/05/15 19:03:30;;;;;;;11.43;7.78;;;;;;;21.79;57.93;100074.91;6275262;22;20149;-83
2022/05/15 19:05:56;;;;;;;11.10;7.55;;;;;;;21.82;58.34;100065.41;6274958;22;20489;-83
2022/05/15 19:08:25;;;;;;;13.52;7.18;;;;;;;21.86;59.56;100072.34;6275136;22;20035;-83
2022/05/15 19:10:51;;;;;;;8.98;7.05;;;;;;;21.82;59.98;100083.13;6274619;22;20019;-83
2022/05/15 19:13:17;;;;;;;10.38;7.47;;;;;;;21.76;59.56;100076.69;6274379;22;20011;-83
2022/05/15 19:15:43;;;;;;;10.80;7.97;;;;;;;21.72;59.32;100095.16;6274276;22;20058;-78
2022/05/15 19:18:09;;;;;;;13.05;7.43;;;;;;;21.60;58.97;100082.31;6273812;22;20016;-78
2022/05/15 19:20:35;;;;;;;9.93;7.65;;;;;;;21.58;58.52;100085.66;6246362;22;20400;-77
2022/05/15 19:23:00;;;;;;;8.23;6.90;;;;;;;21.57;58.28;100100.28;6274996;22;20003;-78
2022/05/15 19:25:26;;;;;;;9.55;7.15;;;;;;;21.53;57.92;100094.13;6247562;22;20045;-78
2022/05/15 19:27:52;;;;;;;9.68;6.90;;;;;;;21.42;58.66;100088.47;6248088;22;20441;-78
2022/05/15 19:30:17;;;;;;;8.85;7.32;;;;;;;21.07;60.54;100088.88;6274289;22;20079;-78
2022/05/15 19:32:43;;;;;;;10.60;7.38;;;;;;;20.91;61.33;100095.97;6274849;22;20011;-78
2022/05/15 19:35:09;;;;;;;9.70;7.80;;;;;;;20.69;63.87;100096.69;6247142;22;20020;-78
2022/05/15 19:37:34;;;;;;;10.32;7.50;;;;;;;20.57;64.45;100097.91;6274722;22;20087;-78
2022/05/15 19:40:00;;;;;;;11.25;7.47;;;;;;;20.60;63.82;100093.28;6274627;22;20499;-78
2022/05/15 19:42:25;;;;;;;11.95;7.90;;;;;;;20.61;63.36;100094.84;6247270;22;20003;-78
2022/05/15 19:44:51;;;;;;;11.23;7.85;;;;;;;20.58;64.28;100091.00;6222294;22;20012;-78
2022/05/15 19:47:16;;;;;;;11.95;8.27;;;;;;;20.48;64.93;100081.97;6274153;22;20337;-78
2022/05/15 19:49:43;;;;;;;13.55;7.70;;;;;;;20.51;64.90;100085.81;6274891;22;20346;-78
2022/05/15 19:52:10;;;;;;;8.95;7.75;;;;;;;20.45;66.18;100085.81;6274201;22;20065;-78
2022/05/15 19:54:36;;;;;;;10.73;9.63;;;;;;;20.29;67.40;100082.88;6247736;22;20016;-78
2022/05/15 19:57:03;;;;;;;13.10;10.43;;;;;;;20.25;68.27;100091.53;6274870;22;20062;-77
2022/05/15 19:59:29;;;;;;;11.35;10.13;;;;;;;20.11;68.64;100081.19;6274565;22;20090;-78
2022/05/15 20:01:56;;;;;;;12.85;9.13;;;;;;;20.16;67.92;100094.53;6248037;22;20054;-77
2022/05/15 20:04:22;;;;;;;9.60;8.60;;;;;;;20.15;68.50;100093.00;6273662;22;20011;-78
2022/05/15 20:12:17;;;;;;;12.40;8.65;;;;;;;20.05;68.34;100093.69;6274143;22;20018;-84
2022/05/15 20:14:43;;;;;;;10.73;8.20;;;;;;;19.91;68.80;100092.56;6247854;22;20555;-84
2022/05/15 20:17:13;;;;;;;12.68;7.90;;;;;;;19.86;68.90;100093.28;6273776;22;20039;-84
2022/05/15 20:19:38;;;;;;;14.00;8.73;;;;;;;19.76;69.78;100097.56;6247199;22;20094;-84
2022/05/15 20:22:04;;;;;;;11.30;8.63;;;;;;;19.68;70.89;100099.28;6246875;22;20035;-84
2022/05/15 20:24:29;;;;;;;10.00;8.95;;;;;;;19.61;71.53;100094.09;6246471;22;20003;-85
2022/05/15 20:26:55;;;;;;;11.07;8.73;;;;;;;19.40;72.92;100096.94;6245962;22;20074;-85
2022/05/15 20:29:20;;;;;;;10.55;9.20;;;;;;;19.22;74.19;100102.88;6246402;22;20054;-84
2022/05/15 20:31:46;;;;;;;10.02;8.93;;;;;;;19.06;75.80;100097.84;6273196;22;20022;-79
2022/05/15 20:34:23;;;;;;;10.75;8.75;;;;;;;19.06;75.09;100103.47;6274102;22;20503;-80
2022/05/15 20:36:51;;;;;;;10.38;9.23;;;;;;;19.04;75.10;100094.78;6274329;22;20016;-80
2022/05/15 20:39:18;;;;;;;10.60;8.88;;;;;;;18.90;75.81;100093.59;6273950;22;20015;-79
2022/05/15 20:41:47;;;;;;;10.15;9.07;;;;;;;18.71;77.79;100109.19;6273134;22;20458;-79
2022/05/15 20:44:17;;;;;;;10.20;9.20;;;;;;;18.70;77.04;100098.44;6273778;22;20011;-80
2022/05/15 20:46:42;;;;;;;10.15;8.68;;;;;;;18.78;76.07;100103.16;6273589;22;20011;-79
2022/05/15 20:49:08;;;;;;;9.82;8.82;;;;;;;18.80;75.56;100114.69;6273831;22;20015;-79
2022/05/15 20:51:36;;;;;;;9.27;8.35;;;;;;;18.81;75.21;100109.81;6272682;22;20030;-79
2022/05/15 20:54:03;;;;;;;10.93;8.50;;;;;;;18.70;74.76;100106.84;6248064;22;20038;-79
2022/05/15 20:56:28;;;;;;;11.57;9.10;;;;;;;18.70;75.57;100109.66;6247160;22;20003;-80
2022/05/15 20:58:54;;;;;;;9.63;8.65;;;;;;;18.60;75.00;100104.19;6274572;22;20012;-79
2022/05/15 21:01:20;;;;;;;9.27;8.23;;;;;;;18.66;74.79;100104.25;6273750;22;20085;-79
2022/05/15 21:03:45;;;;;;;10.07;8.48;;;;;;;18.71;73.93;100108.41;6274141;22;20437;-80
2022/05/15 21:06:11;;;;;;;11.90;8.68;;;;;;;18.64;73.75;100118.78;6273731;22;20003;-80
2022/05/15 21:08:37;;;;;;;10.32;8.77;;;;;;;18.64;74.43;100110.38;6274026;22;20008;-79
2022/05/15 21:11:03;;;;;;;10.80;9.70;;;;;;;18.71;74.74;100111.22;6273435;22;20087;-80
2022/05/15 21:13:28;;;;;;;10.02;8.98;;;;;;;18.64;74.93;100113.16;6221014;22;20035;-79
2022/05/15 21:15:54;;;;;;;10.15;8.50;;;;;;;18.50;75.45;100116.03;6274110;22;20010;-79
2022/05/15 21:18:20;;;;;;;10.40;9.23;;;;;;;18.48;74.74;100113.69;6274051;22;20057;-79
2022/05/15 21:20:47;;;;;;;9.73;8.73;;;;;;;18.48;75.61;100119.31;6274174;22;20000;-79
2022/05/15 21:23:13;;;;;;;10.73;9.00;;;;;;;18.52;74.95;100116.34;6273707;22;20016;-79
2022/05/15 21:25:38;;;;;;;9.57;8.48;;;;;;;18.42;75.68;100115.66;6246806;22;20042;-79
2022/05/15 21:28:04;;;;;;;10.00;8.98;;;;;;;18.31;76.49;100109.88;6274596;22;20015;-79
2022/05/15 21:30:31;;;;;;;11.00;8.82;;;;;;;18.12;78.76;100119.78;6273768;22;20011;-79
2022/05/15 21:32:58;;;;;;;9.80;8.80;;;;;;;17.91;80.53;100115.38;6246814;22;20094;-79
2022/05/15 21:35:23;;;;;;;9.98;9.07;;;;;;;17.77;82.02;100114.13;6273723;22;20008;-78
2022/05/15 21:37:49;;;;;;;10.75;8.98;;;;;;;17.74;82.89;100114.34;6273970;22;20016;-79